createdAt,value
2019-04-01T00:01:01.427Z,4.20
2019-04-01T00:03:49.411Z,4.20
2019-04-01T00:06:37.848Z,4.10
2019-04-01T00:09:26.254Z,4.10
2019-04-01T00:12:14.194Z,4.10
2019-04-01T00:15:02.144Z,4.10
2019-04-01T00:17:50.603Z,4.00
2019-04-01T00:20:38.551Z,4.00
2019-04-01T00:23:26.458Z,4.00
2019-04-01T00:26:14.340Z,3.90
2019-04-01T00:29:02.691Z,3.90
2019-04-01T00:31:50.955Z,3.80
2019-04-01T00:34:39.163Z,3.80
2019-04-01T00:37:27.720Z,3.80
2019-04-01T00:40:15.491Z,3.70
2019-04-01T00:43:14.175Z,3.70
2019-04-01T00:46:02.524Z,3.70
2019-04-01T00:48:50.090Z,3.70
2019-04-01T00:51:38.678Z,3.70
2019-04-01T00:54:26.221Z,3.70
2019-04-01T00:57:14.371Z,3.70
2019-04-01T01:00:02.674Z,3.60
2019-04-01T01:02:50.838Z,3.60
2019-04-01T01:05:39.080Z,3.60
2019-04-01T01:08:27.506Z,3.60
2019-04-01T01:11:16.716Z,3.50
2019-04-01T01:14:05.047Z,3.50
2019-04-01T01:16:53.282Z,3.40
2019-04-01T01:19:41.108Z,3.50
2019-04-01T01:22:29.598Z,3.50
2019-04-01T01:25:18.067Z,3.50
2019-04-01T01:28:06.543Z,3.50
2019-04-01T01:30:54.283Z,3.50
2019-04-01T01:33:42.746Z,3.50
2019-04-01T01:36:31.287Z,3.50
2019-04-01T01:39:19.494Z,3.40
2019-04-01T01:42:07.699Z,3.40
2019-04-01T01:44:55.888Z,3.40
2019-04-01T01:47:44.426Z,3.40
2019-04-01T01:50:32.703Z,3.40
2019-04-01T01:53:20.881Z,3.40
2019-04-01T01:56:09.086Z,3.30
2019-04-01T01:58:57.084Z,3.30
2019-04-01T02:01:45.695Z,3.30
2019-04-01T02:04:34.821Z,3.30
2019-04-01T02:07:22.950Z,3.30
2019-04-01T02:10:11.908Z,3.20
2019-04-01T02:13:00.437Z,3.30
2019-04-01T02:15:49.011Z,3.30
2019-04-01T02:18:37.027Z,3.20
2019-04-01T02:21:24.979Z,3.20
2019-04-01T02:24:12.835Z,3.20
2019-04-01T02:27:00.452Z,3.10
2019-04-01T02:29:48.715Z,3.10
2019-04-01T02:32:37.052Z,3.10
2019-04-01T02:35:25.566Z,3.10
2019-04-01T02:38:14.105Z,3.10
2019-04-01T02:41:02.569Z,3.10
2019-04-01T02:43:50.843Z,3.10
2019-04-01T02:46:38.623Z,3.00
2019-04-01T02:49:26.514Z,3.00
2019-04-01T02:52:14.675Z,3.00
2019-04-01T02:55:06.691Z,3.00
2019-04-01T02:57:52.479Z,3.00
2019-04-01T03:00:41.212Z,2.90
2019-04-01T03:03:29.571Z,2.90
2019-04-01T03:06:17.731Z,2.90
2019-04-01T03:09:07.228Z,2.80
2019-04-01T03:11:55.432Z,2.90
2019-04-01T03:14:43.676Z,2.80
2019-04-01T03:17:31.976Z,2.80
2019-04-01T03:20:19.619Z,2.80
2019-04-01T03:23:07.992Z,2.80
2019-04-01T03:25:56.415Z,2.80
2019-04-01T03:28:45.048Z,2.80
2019-04-01T03:31:33.783Z,2.70
2019-04-01T03:34:22.323Z,2.60
2019-04-01T03:37:10.498Z,2.70
2019-04-01T03:39:58.796Z,2.60
2019-04-01T03:42:47.369Z,2.60
2019-04-01T03:45:35.363Z,2.60
2019-04-01T03:48:23.144Z,2.60
2019-04-01T03:51:11.256Z,2.60
2019-04-01T03:53:59.360Z,2.60
2019-04-01T03:56:47.292Z,2.60
2019-04-01T03:59:35.742Z,2.60
2019-04-01T04:02:23.937Z,2.60
2019-04-01T04:05:12.347Z,2.50
2019-04-01T04:08:00.844Z,2.50
2019-04-01T04:10:48.628Z,2.50
2019-04-01T04:13:36.964Z,2.40
2019-04-01T04:16:25.071Z,2.50
2019-04-01T04:19:12.500Z,2.50
2019-04-01T04:22:00.941Z,2.50
2019-04-01T04:24:49.743Z,2.50
2019-04-01T04:27:37.799Z,2.50
2019-04-01T04:30:25.832Z,2.50
2019-04-01T04:33:14.042Z,2.50
2019-04-01T04:36:02.297Z,2.40
2019-04-01T04:38:50.379Z,2.40
2019-04-01T04:41:38.666Z,2.40
2019-04-01T04:44:26.831Z,2.40
2019-04-01T04:47:15.150Z,2.40
2019-04-01T04:50:03.744Z,2.40
2019-04-01T04:52:52.028Z,2.40
2019-04-01T04:55:40.370Z,2.40
2019-04-01T04:58:28.578Z,2.40
2019-04-01T05:01:16.662Z,2.30
2019-04-01T05:04:05.122Z,2.30
2019-04-01T05:06:53.697Z,2.30
2019-04-01T05:09:41.823Z,2.40
2019-04-01T05:12:29.701Z,2.30
2019-04-01T05:15:17.579Z,2.30
2019-04-01T05:18:05.682Z,2.30
2019-04-01T05:20:54.778Z,2.40
2019-04-01T05:23:42.553Z,2.40
2019-04-01T05:26:33.460Z,2.40
2019-04-01T05:29:24.112Z,2.40
2019-04-01T05:32:13.548Z,2.40
2019-04-01T05:35:03.666Z,2.50
2019-04-01T05:37:52.031Z,2.50
2019-04-01T05:40:40.078Z,2.50
2019-04-01T05:43:29.177Z,2.50
2019-04-01T05:46:17.376Z,2.60
2019-04-01T05:49:05.531Z,2.50
2019-04-01T05:51:53.558Z,2.60
2019-04-01T05:54:42.195Z,2.70
2019-04-01T05:57:30.818Z,2.70
2019-04-01T06:00:24.702Z,2.80
2019-04-01T06:03:12.983Z,2.90
2019-04-01T06:06:01.695Z,3.00
2019-04-01T06:08:49.692Z,3.10
2019-04-01T06:11:38.308Z,3.20
2019-04-01T06:14:26.499Z,3.30
2019-04-01T06:17:15.083Z,3.30
2019-04-01T06:20:03.551Z,3.40
2019-04-01T06:22:52.027Z,3.40
2019-04-01T06:25:40.106Z,3.50
2019-04-01T06:28:28.570Z,3.50
2019-04-01T06:31:16.591Z,3.60
2019-04-01T06:34:04.367Z,3.80
2019-04-01T06:36:52.545Z,4.00
2019-04-01T06:39:40.960Z,4.00
2019-04-01T06:42:29.085Z,4.10
2019-04-01T06:45:16.888Z,4.10
2019-04-01T06:48:05.139Z,4.20
2019-04-01T06:50:53.438Z,4.40
2019-04-01T06:53:42.518Z,4.50
2019-04-01T06:56:31.141Z,4.70
2019-04-01T06:59:19.477Z,4.80
2019-04-01T07:02:07.474Z,4.90
2019-04-01T07:04:55.411Z,5.10
2019-04-01T07:07:43.883Z,5.20
2019-04-01T07:10:31.707Z,5.40
2019-04-01T07:13:19.922Z,5.50
2019-04-01T07:16:15.411Z,5.50
2019-04-01T07:18:58.370Z,5.90
2019-04-01T07:21:46.222Z,6.20
2019-04-01T07:24:34.504Z,6.60
2019-04-01T07:27:22.790Z,6.90
2019-04-01T07:30:12.558Z,6.90
2019-04-01T07:33:00.756Z,7.00
2019-04-01T07:35:49.134Z,7.10
2019-04-01T07:38:37.494Z,7.10
2019-04-01T07:41:25.400Z,7.20
2019-04-01T07:44:13.908Z,7.30
2019-04-01T07:47:02.307Z,7.60
2019-04-01T07:49:50.272Z,8.10
2019-04-01T07:52:38.563Z,8.40
2019-04-01T07:55:26.253Z,8.60
2019-04-01T07:58:14.731Z,8.70
2019-04-01T08:01:03.019Z,8.50
2019-04-01T08:03:51.327Z,8.60
2019-04-01T08:06:39.331Z,8.80
2019-04-01T08:09:27.231Z,9.00
2019-04-01T08:12:15.779Z,9.30
2019-04-01T08:15:04.343Z,9.70
2019-04-01T08:17:52.450Z,10.40
2019-04-01T08:20:41.297Z,11.40
2019-04-01T08:23:29.747Z,11.60
2019-04-01T08:26:17.687Z,12.30
2019-04-01T08:29:06.013Z,13.20
2019-04-01T08:31:53.446Z,13.20
2019-04-01T08:34:41.600Z,12.80
2019-04-01T08:37:30.254Z,12.70
2019-04-01T08:40:19.061Z,12.70
2019-04-01T08:43:07.713Z,12.40
2019-04-01T08:45:55.906Z,12.50
2019-04-01T08:48:44.183Z,12.30
2019-04-01T08:51:32.851Z,12.00
2019-04-01T08:54:21.323Z,11.40
2019-04-01T08:57:10.308Z,11.70
2019-04-01T08:59:59.095Z,11.70
2019-04-01T09:02:47.166Z,12.00
2019-04-01T09:05:35.176Z,12.80
2019-04-01T09:08:24.219Z,13.00
2019-04-01T09:11:12.608Z,12.50
2019-04-01T09:14:01.303Z,13.70
2019-04-01T09:16:51.355Z,15.10
2019-04-01T09:19:39.553Z,15.70
2019-04-01T09:22:28.014Z,16.30
2019-04-01T09:25:16.023Z,16.90
2019-04-01T09:28:03.718Z,16.40
2019-04-01T09:30:51.732Z,16.10
2019-04-01T09:33:39.892Z,16.20
2019-04-01T09:36:27.918Z,15.50
2019-04-01T09:39:16.305Z,15.80
2019-04-01T09:42:04.188Z,16.20
2019-04-01T09:44:52.058Z,16.50
2019-04-01T09:47:40.283Z,16.70
2019-04-01T09:50:28.784Z,16.60
2019-04-01T09:53:17.011Z,16.50
2019-04-01T09:56:05.017Z,16.00
2019-04-01T09:58:52.876Z,15.90
2019-04-01T10:01:41.236Z,15.90
2019-04-01T10:04:29.526Z,16.20
2019-04-01T10:07:17.998Z,16.10
2019-04-01T10:10:06.761Z,16.20
2019-04-01T10:12:55.246Z,16.00
2019-04-01T10:15:43.871Z,16.40
2019-04-01T10:18:32.170Z,16.40
2019-04-01T10:21:20.755Z,16.70
2019-04-01T10:24:09.086Z,17.60
2019-04-01T10:26:57.827Z,18.40
2019-04-01T10:29:45.498Z,18.70
2019-04-01T10:32:33.731Z,18.90
2019-04-01T10:35:23.184Z,18.90
2019-04-01T10:38:11.252Z,19.10
2019-04-01T10:40:59.530Z,20.00
2019-04-01T10:43:47.628Z,20.50
2019-04-01T10:46:35.842Z,20.10
2019-04-01T10:49:24.402Z,19.70
2019-04-01T10:52:12.337Z,19.20
2019-04-01T10:55:00.687Z,19.10
2019-04-01T10:57:48.266Z,19.10
2019-04-01T11:00:36.340Z,19.50
2019-04-01T11:03:24.934Z,19.60
2019-04-01T11:06:13.290Z,19.80
2019-04-01T11:09:01.521Z,20.70
2019-04-01T11:11:49.540Z,22.60
2019-04-01T11:14:38.220Z,22.80
2019-04-01T11:17:26.747Z,22.60
2019-04-01T11:20:15.231Z,22.70
2019-04-01T11:23:04.981Z,22.00
2019-04-01T11:25:53.546Z,22.20
2019-04-01T11:28:42.086Z,20.70
2019-04-01T11:31:30.190Z,20.00
2019-04-01T11:34:19.288Z,21.00
2019-04-01T11:37:07.648Z,21.90
2019-04-01T11:39:55.264Z,22.20
2019-04-01T11:42:43.726Z,22.40
2019-04-01T11:45:32.192Z,22.30
2019-04-01T11:48:20.214Z,23.30
2019-04-01T11:51:08.576Z,24.20
2019-04-01T11:53:56.615Z,24.40
2019-04-01T11:56:44.573Z,25.20
2019-04-01T11:59:32.735Z,24.40
2019-04-01T12:02:20.818Z,24.40
2019-04-01T12:05:09.254Z,24.40
2019-04-01T12:07:56.989Z,24.20
2019-04-01T12:10:44.503Z,24.40
2019-04-01T12:13:33.158Z,24.40
2019-04-01T12:16:21.672Z,25.20
2019-04-01T12:19:10.370Z,25.00
2019-04-01T12:21:58.758Z,24.90
2019-04-01T12:24:46.802Z,25.30
2019-04-01T12:27:34.881Z,25.40
2019-04-01T12:30:22.809Z,25.40
2019-04-01T12:33:11.044Z,26.30
2019-04-01T12:35:59.696Z,25.10
2019-04-01T12:38:48.131Z,25.50
2019-04-01T12:41:36.289Z,24.80
2019-04-01T12:44:23.887Z,25.60
2019-04-01T12:47:12.059Z,25.20
2019-04-01T12:50:00.594Z,25.60
2019-04-01T12:52:48.976Z,26.00
2019-04-01T12:55:37.326Z,25.10
2019-04-01T12:58:25.816Z,25.70
2019-04-01T13:01:13.711Z,26.10
2019-04-01T13:04:04.188Z,25.70
2019-04-01T13:06:51.733Z,26.00
2019-04-01T13:09:40.443Z,25.90
2019-04-01T13:12:28.432Z,25.40
2019-04-01T13:15:17.043Z,25.70
2019-04-01T13:18:04.726Z,25.50
2019-04-01T13:20:53.055Z,26.10
2019-04-01T13:23:41.475Z,26.00
2019-04-01T13:26:30.946Z,24.80
2019-04-01T13:29:19.431Z,24.90
2019-04-01T13:32:07.686Z,25.10
2019-04-01T13:34:56.258Z,24.90
2019-04-01T13:37:44.755Z,24.80
2019-04-01T13:40:33.219Z,24.90
2019-04-01T13:43:21.445Z,24.80
2019-04-01T13:46:09.797Z,24.70
2019-04-01T13:49:01.676Z,24.20
2019-04-01T13:51:47.347Z,24.60
2019-04-01T13:54:35.359Z,25.40
2019-04-01T13:57:23.831Z,25.50
2019-04-01T14:00:11.977Z,25.00
2019-04-01T14:03:00.883Z,25.50
2019-04-01T14:05:48.626Z,26.10
2019-04-01T14:08:37.043Z,25.80
2019-04-01T14:11:25.351Z,26.20
2019-04-01T14:14:13.351Z,25.30
2019-04-01T14:17:01.839Z,25.20
2019-04-01T14:19:50.066Z,26.00
2019-04-01T14:22:37.664Z,25.60
2019-04-01T14:25:26.036Z,25.60
2019-04-01T14:28:13.992Z,25.60
2019-04-01T14:31:01.535Z,25.20
2019-04-01T14:33:49.807Z,25.30
2019-04-01T14:36:38.122Z,24.70
2019-04-01T14:39:26.662Z,24.40
2019-04-01T14:42:14.635Z,24.20
2019-04-01T14:45:03.023Z,24.30
2019-04-01T14:47:57.401Z,24.40
2019-04-01T14:50:40.204Z,24.30
2019-04-01T14:53:28.114Z,24.00
2019-04-01T14:56:16.572Z,24.20
2019-04-01T14:59:05.275Z,24.40
2019-04-01T15:01:53.796Z,24.20
2019-04-01T15:04:41.975Z,23.80
2019-04-01T15:07:30.579Z,23.80
2019-04-01T15:10:19.443Z,23.50
2019-04-01T15:13:08.853Z,23.70
2019-04-01T15:15:56.544Z,23.60
2019-04-01T15:18:45.517Z,23.00
2019-04-01T15:21:34.264Z,22.90
2019-04-01T15:24:22.257Z,22.60
2019-04-01T15:27:10.880Z,22.40
2019-04-01T15:29:58.867Z,22.70
2019-04-01T15:32:46.615Z,22.60
2019-04-01T15:35:35.188Z,22.70
2019-04-01T15:38:23.197Z,23.20
2019-04-01T15:41:11.029Z,22.90
2019-04-01T15:43:58.907Z,22.80
2019-04-01T15:46:46.548Z,23.10
2019-04-01T15:49:34.995Z,23.00
2019-04-01T15:52:23.147Z,22.80
2019-04-01T15:55:11.518Z,22.70
2019-04-01T15:57:59.588Z,22.60
2019-04-01T16:00:48.227Z,22.80
2019-04-01T16:03:36.673Z,22.20
2019-04-01T16:06:24.763Z,22.20
2019-04-01T16:09:13.059Z,21.80
2019-04-01T16:12:01.399Z,20.90
2019-04-01T16:14:49.730Z,20.30
2019-04-01T16:17:37.743Z,20.40
2019-04-01T16:20:26.211Z,20.00
2019-04-01T16:23:14.904Z,19.30
2019-04-01T16:26:03.216Z,18.70
2019-04-01T16:28:51.174Z,17.60
2019-04-01T16:31:39.086Z,17.10
2019-04-01T16:34:27.711Z,16.90
2019-04-01T16:37:16.106Z,16.60
2019-04-01T16:40:05.986Z,16.50
2019-04-01T16:42:55.695Z,16.20
2019-04-01T16:45:43.614Z,15.90
2019-04-01T16:48:31.727Z,15.60
2019-04-01T16:51:20.299Z,15.50
2019-04-01T16:54:08.635Z,15.50
2019-04-01T16:56:56.850Z,15.40
2019-04-01T16:59:44.847Z,15.30
2019-04-01T17:02:33.408Z,15.30
2019-04-01T17:05:27.172Z,15.10
2019-04-01T17:08:15.262Z,14.90
2019-04-01T17:11:04.034Z,14.90
2019-04-01T17:13:52.540Z,14.80
2019-04-01T17:16:40.788Z,14.70
2019-04-01T17:19:29.030Z,14.50
2019-04-01T17:22:17.630Z,14.40
2019-04-01T17:25:05.838Z,14.30
2019-04-01T17:27:54.320Z,14.20
2019-04-01T17:30:42.187Z,14.10
2019-04-01T17:33:30.510Z,14.00
2019-04-01T17:36:18.774Z,14.00
2019-04-01T17:39:07.067Z,13.90
2019-04-01T17:41:55.091Z,13.80
2019-04-01T17:44:43.159Z,13.60
2019-04-01T17:47:31.746Z,13.60
2019-04-01T17:50:19.838Z,13.50
2019-04-01T17:53:08.701Z,13.40
2019-04-01T17:55:56.887Z,13.40
2019-04-01T17:58:45.023Z,13.30
2019-04-01T18:01:33.262Z,13.20
2019-04-01T18:04:21.660Z,13.10
2019-04-01T18:07:10.022Z,13.10
2019-04-01T18:09:59.204Z,13.00
2019-04-01T18:12:48.634Z,12.90
2019-04-01T18:15:37.054Z,12.80
2019-04-01T18:18:27.193Z,12.80
2019-04-01T18:21:14.152Z,12.70
2019-04-01T18:24:02.115Z,12.70
2019-04-01T18:26:50.435Z,12.60
2019-04-01T18:29:38.607Z,12.60
2019-04-01T18:32:26.820Z,12.50
2019-04-01T18:35:14.635Z,12.50
2019-04-01T18:38:03.215Z,12.40
2019-04-01T18:40:51.611Z,12.30
2019-04-01T18:43:39.950Z,12.20
2019-04-01T18:46:28.033Z,12.20
2019-04-01T18:49:17.303Z,12.20
2019-04-01T18:52:05.443Z,12.10
2019-04-01T18:54:53.708Z,12.00
2019-04-01T18:57:42.312Z,11.90
2019-04-01T19:00:30.735Z,11.90
2019-04-01T19:03:18.643Z,11.80
2019-04-01T19:06:07.424Z,11.80
2019-04-01T19:09:08.653Z,11.70
2019-04-01T19:11:46.099Z,11.60
2019-04-01T19:14:33.958Z,11.50
2019-04-01T19:17:21.986Z,11.50
2019-04-01T19:20:11.183Z,11.40
2019-04-01T19:22:59.307Z,11.40
2019-04-01T19:25:47.920Z,11.30
2019-04-01T19:28:35.972Z,11.30
2019-04-01T19:31:23.475Z,11.20
2019-04-01T19:34:12.314Z,11.20
2019-04-01T19:37:00.326Z,11.10
2019-04-01T19:39:48.130Z,11.00
2019-04-01T19:42:39.306Z,11.00
2019-04-01T19:45:25.761Z,11.00
2019-04-01T19:48:13.764Z,10.90
2019-04-01T19:51:01.887Z,10.90
2019-04-01T19:53:50.314Z,10.80
2019-04-01T19:56:39.023Z,10.70
2019-04-01T19:59:27.378Z,10.70
2019-04-01T20:02:15.466Z,10.60
2019-04-01T20:05:03.173Z,10.60
2019-04-01T20:07:51.402Z,10.60
2019-04-01T20:10:39.075Z,10.50
2019-04-01T20:13:27.351Z,10.50
2019-04-01T20:16:15.031Z,10.50
2019-04-01T20:19:03.069Z,10.40
2019-04-01T20:21:51.323Z,10.40
2019-04-01T20:24:39.595Z,10.30
2019-04-01T20:27:28.165Z,10.30
2019-04-01T20:30:16.400Z,10.30
2019-04-01T20:33:16.923Z,10.30
2019-04-01T20:35:54.330Z,10.20
2019-04-01T20:38:42.620Z,10.20
2019-04-01T20:41:30.947Z,10.10
2019-04-01T20:44:19.086Z,10.10
2019-04-01T20:47:07.119Z,10.00
2019-04-01T20:49:55.730Z,10.00
2019-04-01T20:52:43.820Z,9.90
2019-04-01T20:55:31.848Z,9.90
2019-04-01T20:58:19.771Z,9.80
2019-04-01T21:01:07.808Z,9.70
2019-04-01T21:03:56.177Z,9.70
2019-04-01T21:06:44.287Z,9.70
2019-04-01T21:09:32.359Z,9.60
2019-04-01T21:12:20.337Z,9.60
2019-04-01T21:15:08.778Z,9.50
2019-04-01T21:17:57.279Z,9.40
2019-04-01T21:20:45.594Z,9.40
2019-04-01T21:23:35.153Z,9.40
2019-04-01T21:26:24.410Z,9.30
2019-04-01T21:29:12.646Z,9.30
2019-04-01T21:32:00.702Z,9.20
2019-04-01T21:34:49.111Z,9.10
2019-04-01T21:37:37.359Z,9.10
2019-04-01T21:40:25.382Z,9.00
2019-04-01T21:43:13.585Z,9.00
2019-04-01T21:46:02.099Z,8.80
2019-04-01T21:48:50.509Z,8.80
2019-04-01T21:51:38.686Z,8.70
2019-04-01T21:54:27.184Z,8.70
2019-04-01T21:57:16.600Z,8.70
2019-04-01T22:00:04.955Z,8.60
2019-04-01T22:02:53.203Z,8.60
2019-04-01T22:05:41.145Z,8.60
2019-04-01T22:08:28.835Z,8.50
2019-04-01T22:11:17.059Z,8.50
2019-04-01T22:14:05.482Z,8.50
2019-04-01T22:16:53.199Z,8.40
2019-04-01T22:19:41.538Z,8.40
2019-04-01T22:22:29.866Z,8.30
2019-04-01T22:25:18.363Z,8.30
2019-04-01T22:28:06.787Z,8.20
2019-04-01T22:30:54.979Z,8.20
2019-04-01T22:33:43.273Z,8.10
2019-04-01T22:36:31.715Z,8.00
2019-04-01T22:39:26.954Z,8.00
2019-04-01T22:42:09.527Z,8.00
2019-04-01T22:44:58.094Z,8.00
2019-04-01T22:47:46.040Z,8.00
2019-04-01T22:50:33.783Z,7.90
2019-04-01T22:53:21.794Z,7.90
2019-04-01T22:56:10.060Z,7.80
2019-04-01T22:58:58.502Z,7.80
2019-04-01T23:01:47.015Z,7.80
2019-04-01T23:04:36.855Z,7.80
2019-04-01T23:07:24.842Z,7.70
2019-04-01T23:10:13.547Z,7.70
2019-04-01T23:13:01.373Z,7.70
2019-04-01T23:15:49.689Z,7.60
2019-04-01T23:18:37.134Z,7.60
2019-04-01T23:21:25.550Z,7.60
2019-04-01T23:24:13.408Z,7.60
2019-04-01T23:27:01.338Z,7.60
2019-04-01T23:29:51.167Z,7.60
2019-04-01T23:32:41.889Z,7.60
2019-04-01T23:35:29.143Z,7.50
2019-04-01T23:38:17.458Z,7.50
2019-04-01T23:41:05.790Z,7.50
2019-04-01T23:43:54.204Z,7.50
2019-04-01T23:46:42.562Z,7.40
2019-04-01T23:49:31.168Z,7.40
2019-04-01T23:52:19.393Z,7.40
2019-04-01T23:55:08.486Z,7.40
2019-04-01T23:57:56.498Z,7.30
